Time;durP1;ratioP1;P1;durP2;ratioP2;P2;SDS_P1;SDS_P2;PMS_P1;PMS_P2;Temp;Humidity;BMP_temperature;BMP_pressure;BME280_temperature;BME280_humidity;BME280_pressure;Samples;Min_cycle;Max_cycle;Signal;HPM_P1;HPM_P2
2022/04/01 00:00:22;;;;;;;24.30;17.67;;;;;;;1.21;100.00;94357.13;5008106;28;20480;-77
2022/04/01 00:02:49;;;;;;;26.90;18.30;;;;;;;1.43;100.00;94400.31;5018584;28;20463;-77
2022/04/01 00:05:16;;;;;;;31.50;20.40;;;;;;;1.29;100.00;94376.34;5031109;28;20876;-77
2022/04/01 00:07:42;;;;;;;25.43;19.47;;;;;;;1.42;100.00;94385.78;5030799;28;20466;-77
2022/04/01 00:10:10;;;;;;;30.50;20.10;;;;;;;1.20;100.00;94358.19;5030433;28;20459;-77
2022/04/01 00:12:41;;;;;;;26.93;19.70;;;;;;;1.41;100.00;94366.03;5030667;28;20534;-77
2022/04/01 00:15:09;;;;;;;27.37;20.60;;;;;;;1.51;100.00;94372.72;5014215;28;20470;-77
2022/04/01 00:17:36;;;;;;;27.60;20.60;;;;;;;1.35;100.00;94352.44;5030958;28;21000;-77
2022/04/01 00:20:03;;;;;;;32.00;21.30;;;;;;;1.45;100.00;94362.47;5031194;28;20463;-77
2022/04/01 00:22:30;;;;;;;26.43;19.03;;;;;;;1.46;100.00;94384.06;5047420;28;20472;-77
2022/04/01 00:24:57;;;;;;;27.30;20.83;;;;;;;1.52;100.00;94385.41;5023681;28;20437;-77
2022/04/01 00:27:24;;;;;;;26.20;20.60;;;;;;;1.11;100.00;94328.88;5012631;28;20536;-78
2022/04/01 00:29:51;;;;;;;30.73;21.90;;;;;;;1.32;100.00;94362.72;4994905;28;20523;-78
2022/04/01 00:32:18;;;;;;;32.53;22.80;;;;;;;1.05;100.00;94320.47;5025327;28;20956;-78
2022/04/01 00:34:45;;;;;;;29.93;22.07;;;;;;;1.25;100.00;94354.66;5020001;28;20480;-77
2022/04/01 00:37:12;;;;;;;31.70;23.07;;;;;;;1.51;100.00;94386.50;5000792;28;20491;-77
2022/04/01 00:39:39;;;;;;;26.93;21.00;;;;;;;1.40;100.00;94361.91;5030999;28;20439;-77
2022/04/01 00:42:06;;;;;;;36.37;27.40;;;;;;;1.45;100.00;94362.47;5013977;28;20466;-77
2022/04/01 00:44:36;;;;;;;31.53;22.00;;;;;;;1.60;100.00;94381.22;5020808;28;20497;-77
2022/04/01 00:47:11;;;;;;;27.50;20.43;;;;;;;1.36;100.00;94345.41;5018636;28;20554;-77
2022/04/01 00:49:39;;;;;;;32.80;26.87;;;;;;;1.39;100.00;94357.78;5019578;28;20421;-78
2022/04/01 00:52:10;;;;;;;25.63;20.80;;;;;;;1.43;100.00;94361.28;5023901;28;20494;-77
2022/04/01 00:54:37;;;;;;;23.07;18.13;;;;;;;1.69;100.00;94376.72;5027456;28;20533;-76
2022/04/01 00:57:10;;;;;;;23.57;19.10;;;;;;;1.61;100.00;94374.94;5013677;28;20547;-77
2022/04/01 00:59:37;;;;;;;25.13;18.10;;;;;;;1.52;100.00;94377.59;5024229;28;21050;-77
2022/04/01 01:02:05;;;;;;;25.47;18.80;;;;;;;1.52;100.00;94372.41;5023626;28;20461;-77
2022/04/01 01:04:33;;;;;;;24.87;19.50;;;;;;;1.30;100.00;94328.44;5012496;28;20441;-78
2022/04/01 01:07:01;;;;;;;28.60;20.43;;;;;;;1.42;100.00;94350.09;4995178;28;20974;-77
2022/04/01 01:09:28;;;;;;;28.83;19.43;;;;;;;1.38;100.00;94338.81;5012876;28;20957;-77
2022/04/01 01:11:56;;;;;;;27.23;20.37;;;;;;;1.28;100.00;94333.97;5023025;28;20428;-77
2022/04/01 01:14:30;;;;;;;28.40;21.27;;;;;;;1.53;100.00;94373.91;5031220;28;20943;-77
2022/04/01 01:16:58;;;;;;;25.00;20.53;;;;;;;1.26;100.00;94317.91;5026079;28;20985;-77
2022/04/01 01:19:26;;;;;;;25.50;20.57;;;;;;;1.35;100.00;94347.25;5029037;28;20474;-78
2022/04/01 01:21:56;;;;;;;25.63;19.87;;;;;;;1.24;100.00;94332.31;5017413;28;20506;-78
2022/04/01 01:24:30;;;;;;;24.00;19.90;;;;;;;1.37;100.00;94352.13;5004608;28;20931;-77
2022/04/01 01:26:58;;;;;;;28.50;19.70;;;;;;;1.54;100.00;94378.03;5035930;28;20886;-78
2022/04/01 01:29:30;;;;;;;26.70;17.80;;;;;;;1.25;100.00;94321.59;5035696;28;20477;-78
2022/04/01 01:32:00;;;;;;;27.43;18.50;;;;;;;1.42;100.00;94338.91;5035622;28;20825;-77
2022/04/01 01:34:27;;;;;;;23.40;18.33;;;;;;;1.51;100.00;94368.28;5028298;28;20435;-78
2022/04/01 01:36:56;;;;;;;22.90;17.60;;;;;;;1.40;100.00;94341.09;5032099;28;20569;-78
2022/04/01 01:39:23;;;;;;;18.00;16.03;;;;;;;1.60;100.00;94365.59;5018731;28;20973;-78
2022/04/01 01:41:50;;;;;;;20.30;15.70;;;;;;;1.57;100.00;94358.41;5034140;28;20468;-78
2022/04/01 01:44:18;;;;;;;22.00;18.00;;;;;;;1.56;100.00;94354.28;5042827;28;20964;-77
2022/04/01 01:46:44;;;;;;;20.53;17.07;;;;;;;1.31;100.00;94328.13;5014046;28;20464;-77
2022/04/01 01:49:12;;;;;;;21.60;16.03;;;;;;;1.46;100.00;94348.38;5014131;28;20517;-77
2022/04/01 01:57:14;;;;;;;15.60;13.00;;;;;;;1.43;100.00;94362.03;5008448;28;20543;-77
2022/04/01 01:59:40;;;;;;;21.63;13.70;;;;;;;1.17;100.00;94317.19;5020050;28;20808;-77
2022/04/01 02:02:08;;;;;;;17.73;14.27;;;;;;;1.46;100.00;94361.38;5033323;28;20462;-77
2022/04/01 02:04:35;;;;;;;17.63;13.40;;;;;;;1.45;100.00;94370.28;5021324;28;20534;-77
2022/04/01 02:07:03;;;;;;;18.33;14.00;;;;;;;1.10;100.00;94304.69;5016630;28;20788;-77
2022/04/01 02:09:30;;;;;;;15.77;13.97;;;;;;;1.23;100.00;94318.53;5031074;28;20470;-77
2022/04/01 02:11:58;;;;;;;15.87;13.23;;;;;;;1.08;100.00;94313.88;5021875;28;20441;-77
2022/04/01 02:14:25;;;;;;;17.70;14.73;;;;;;;1.05;100.00;94297.03;5019659;28;20504;-77
2022/04/01 02:16:53;;;;;;;14.77;13.23;;;;;;;1.19;100.00;94323.59;5032934;28;20463;-77
2022/04/01 02:19:23;;;;;;;15.20;13.13;;;;;;;1.28;100.00;94341.75;5019799;28;20456;-77
2022/04/01 02:21:54;;;;;;;16.23;13.83;;;;;;;1.42;100.00;94370.16;5022917;28;20467;-77
2022/04/01 02:24:22;;;;;;;15.70;11.50;;;;;;;1.46;100.00;94366.59;5017067;28;20854;-77
2022/04/01 02:26:50;;;;;;;14.97;12.47;;;;;;;1.26;100.00;94330.16;5021855;28;20556;-77
2022/04/01 02:29:19;;;;;;;17.00;13.50;;;;;;;1.49;100.00;94370.44;5049961;28;20435;-77
2022/04/01 02:32:13;;;;;;;17.90;14.13;;;;;;;0.79;100.00;94289.38;5025522;28;20532;-77
2022/04/01 02:35:15;;;;;;;16.37;14.70;;;;;;;1.23;100.00;94354.97;4989135;28;20448;-77
2022/04/01 02:37:43;;;;;;;14.33;12.83;;;;;;;1.07;100.00;94341.75;5017070;28;20468;-77
2022/04/01 02:40:11;;;;;;;14.80;12.70;;;;;;;1.13;100.00;94350.13;5026696;28;20476;-77
2022/04/01 02:42:38;;;;;;;14.60;13.00;;;;;;;1.25;100.00;94373.63;5032284;28;20480;-77
2022/04/01 02:45:09;;;;;;;16.37;13.20;;;;;;;1.09;100.00;94362.25;5017558;28;20526;-76
2022/04/01 02:47:36;;;;;;;15.40;13.53;;;;;;;1.04;100.00;94355.38;5020670;28;20491;-76
2022/04/01 02:50:05;;;;;;;17.90;13.97;;;;;;;0.86;100.00;94328.69;5032287;28;20861;-77
2022/04/01 02:52:32;;;;;;;22.50;18.37;;;;;;;0.95;100.00;94344.25;5032164;28;20888;-77
2022/04/01 02:55:00;;;;;;;20.43;16.80;;;;;;;1.16;100.00;94357.28;5030170;28;20844;-77
2022/04/01 02:57:26;;;;;;;17.90;15.70;;;;;;;0.79;100.00;94323.19;5021067;28;20546;-77
2022/04/01 02:59:53;;;;;;;19.60;15.40;;;;;;;1.02;100.00;94357.53;5016505;28;20466;-77
2022/04/01 03:02:20;;;;;;;19.50;17.00;;;;;;;1.02;100.00;94354.91;5028508;28;20473;-77
2022/04/01 03:04:47;;;;;;;17.40;14.83;;;;;;;1.07;100.00;94369.56;5025327;28;20427;-77
2022/04/01 03:07:14;;;;;;;15.67;14.03;;;;;;;0.85;100.00;94337.56;4995950;28;20453;-77
2022/04/01 03:09:41;;;;;;;19.43;15.57;;;;;;;1.17;100.00;94374.44;5028247;28;20458;-77
2022/04/01 03:12:13;;;;;;;14.97;12.60;;;;;;;0.96;100.00;94340.56;5032107;28;20444;-77
2022/04/01 03:14:49;;;;;;;20.07;15.13;;;;;;;1.16;100.00;94367.69;5013701;28;20431;-77
2022/04/01 03:17:34;;;;;;;16.60;14.50;;;;;;;0.92;100.00;94336.28;5026945;28;20414;-76
2022/04/01 03:20:13;;;;;;;16.73;14.50;;;;;;;1.20;100.00;94368.59;5020576;28;20458;-77
2022/04/01 03:22:43;;;;;;;15.53;12.60;;;;;;;0.83;100.00;94318.16;5031721;28;20465;-77
2022/04/01 03:25:14;;;;;;;17.50;13.77;;;;;;;1.06;100.00;94362.84;5015339;28;20441;-77
2022/04/01 03:28:01;;;;;;;18.70;13.60;;;;;;;1.03;100.00;94361.66;5006495;28;20443;-77
2022/04/01 03:30:29;;;;;;;16.60;14.10;;;;;;;1.07;100.00;94364.38;5018135;28;20445;-77
2022/04/01 03:32:56;;;;;;;16.33;12.90;;;;;;;1.16;100.00;94371.06;5028929;28;20429;-77
2022/04/01 03:35:24;;;;;;;16.93;13.27;;;;;;;1.14;100.00;94362.06;5036712;28;20470;-77
2022/04/01 03:37:51;;;;;;;15.50;13.90;;;;;;;1.19;100.00;94380.84;5045628;28;20450;-76
2022/04/01 03:40:19;;;;;;;15.43;13.70;;;;;;;1.16;100.00;94368.47;5039384;28;20444;-76
2022/04/01 03:42:50;;;;;;;23.40;17.63;;;;;;;0.73;100.00;94318.50;5012174;28;20854;-76
2022/04/01 03:45:17;;;;;;;21.80;14.70;;;;;;;1.04;100.00;94370.22;5015026;28;20455;-77
2022/04/01 03:48:18;;;;;;;16.17;13.60;;;;;;;0.87;100.00;94339.84;5015626;28;20436;-77
2022/04/01 03:50:53;;;;;;;22.40;17.07;;;;;;;1.08;100.00;94358.13;5031697;28;20482;-76
2022/04/01 03:53:25;;;;;;;16.27;14.17;;;;;;;1.10;100.00;94369.72;5018031;28;20523;-77
2022/04/01 03:55:53;;;;;;;18.27;14.43;;;;;;;1.02;100.00;94347.13;5031234;28;20479;-77
2022/04/01 03:59:00;;;;;;;17.23;14.83;;;;;;;0.57;100.00;94287.06;5008642;28;20933;-77
2022/04/01 04:01:47;;;;;;;17.80;14.13;;;;;;;1.12;100.00;94359.00;5012646;28;20448;-77
2022/04/01 04:04:15;;;;;;;14.50;13.00;;;;;;;1.03;100.00;94353.06;5011307;28;20431;-78
2022/04/01 04:06:42;;;;;;;19.30;15.17;;;;;;;1.01;100.00;94339.63;5000451;28;20550;-77
2022/04/01 04:09:09;;;;;;;18.27;13.63;;;;;;;1.15;100.00;94360.97;5030797;28;20488;-77
2022/04/01 04:11:36;;;;;;;17.70;14.73;;;;;;;0.99;100.00;94347.75;5030811;28;21003;-77
2022/04/01 04:14:53;;;;;;;16.87;14.80;;;;;;;0.99;100.00;94362.59;5029206;28;20439;-77
2022/04/01 04:17:30;;;;;;;15.03;12.20;;;;;;;0.79;100.00;94330.25;5023313;28;20450;-77
2022/04/01 04:20:07;;;;;;;18.83;16.20;;;;;;;0.33;100.00;94277.22;5023536;28;20528;-77
2022/04/01 04:22:53;;;;;;;16.70;13.93;;;;;;;0.96;100.00;94360.63;5014027;28;20474;-77
2022/04/01 04:25:32;;;;;;;17.57;14.47;;;;;;;0.96;100.00;94358.03;5030612;28;20834;-77
2022/04/01 04:28:00;;;;;;;17.67;14.47;;;;;;;1.02;100.00;94357.53;5030847;28;20434;-77
2022/04/01 04:30:33;;;;;;;16.90;13.53;;;;;;;0.88;100.00;94342.13;5016575;28;20483;-76
2022/04/01 04:33:33;;;;;;;16.40;13.47;;;;;;;0.98;100.00;94356.63;5022716;28;20968;-76
2022/04/01 04:36:04;;;;;;;17.07;15.03;;;;;;;1.01;100.00;94366.41;5017209;28;20458;-76
2022/04/01 04:38:45;;;;;;;14.93;13.37;;;;;;;0.81;100.00;94328.09;5065336;28;20454;-76
2022/04/01 04:41:13;;;;;;;19.20;15.40;;;;;;;1.02;100.00;94372.38;5022670;28;20531;-77
2022/04/01 04:43:50;;;;;;;16.67;13.30;;;;;;;0.85;100.00;94339.41;5013839;28;20522;-77
2022/04/01 04:46:19;;;;;;;18.17;14.87;;;;;;;1.06;100.00;94378.47;5045635;28;20468;-76
2022/04/01 04:48:46;;;;;;;18.67;13.33;;;;;;;1.07;100.00;94379.97;5028530;28;20431;-76
2022/04/01 04:51:20;;;;;;;20.70;15.90;;;;;;;0.97;100.00;94365.50;5030560;28;20474;-77
2022/04/01 04:54:08;;;;;;;19.57;14.50;;;;;;;0.53;100.00;94304.34;5008722;28;20431;-77
2022/04/01 04:56:36;;;;;;;19.10;15.13;;;;;;;1.02;100.00;94386.13;5019458;28;20472;-77
2022/04/01 04:59:04;;;;;;;17.37;14.33;;;;;;;1.02;100.00;94380.94;5019863;28;20455;-77
2022/04/01 05:01:56;;;;;;;15.07;13.03;;;;;;;1.02;100.00;94388.72;5002652;28;20464;-76
2022/04/01 05:04:41;;;;;;;18.70;14.90;;;;;;;1.01;100.00;94397.63;5018732;28;20447;-77
2022/04/01 05:07:34;;;;;;;16.63;12.93;;;;;;;0.83;100.00;94364.97;5015588;28;20522;-77
2022/04/01 05:11:01;;;;;;;15.63;13.63;;;;;;;1.01;100.00;94392.41;4993816;28;20445;-77
2022/04/01 05:13:32;;;;;;;18.60;15.17;;;;;;;1.03;100.00;94400.66;4960307;28;20480;-76
2022/04/01 05:16:07;;;;;;;17.77;14.07;;;;;;;1.04;100.00;94407.41;4992703;28;20455;-76
2022/04/01 05:18:45;;;;;;;20.03;14.73;;;;;;;1.04;100.00;94411.84;5020619;28;20846;-76
2022/04/01 05:21:23;;;;;;;21.00;14.33;;;;;;;1.04;100.00;94406.63;5032446;28;20458;-77
2022/04/01 05:24:00;;;;;;;16.47;12.67;;;;;;;1.15;100.00;94416.38;5031639;28;20554;-75
2022/04/01 05:26:42;;;;;;;14.43;12.90;;;;;;;0.92;100.00;94385.72;5029963;28;20553;-75
2022/04/01 05:29:13;;;;;;;16.83;14.30;;;;;;;0.94;100.00;94407.00;5031747;28;21018;-76
2022/04/01 05:32:00;;;;;;;17.63;14.53;;;;;;;0.99;100.00;94417.97;5030566;28;20431;-75
2022/04/01 05:34:34;;;;;;;19.43;14.97;;;;;;;0.93;100.00;94432.22;5023014;28;20428;-75
2022/04/01 05:37:02;;;;;;;21.23;15.97;;;;;;;1.01;100.00;94428.84;5026561;28;20443;-75
2022/04/01 05:39:31;;;;;;;18.33;13.90;;;;;;;0.96;100.00;94433.47;5013733;28;20457;-75
2022/04/01 05:42:01;;;;;;;16.80;13.93;;;;;;;0.71;100.00;94402.03;5063340;28;20467;-75
2022/04/01 05:44:36;;;;;;;18.47;14.03;;;;;;;1.02;100.00;94427.75;5029988;28;20435;-75
2022/04/01 05:47:06;;;;;;;14.40;12.83;;;;;;;0.76;100.00;94407.03;5029861;28;20979;-75
2022/04/01 05:49:38;;;;;;;13.20;11.50;;;;;;;0.77;100.00;94433.81;5029911;28;20559;-75
2022/04/01 05:52:08;;;;;;;16.30;14.10;;;;;;;0.52;100.00;94409.41;5029807;28;20447;-75
2022/04/01 05:54:35;;;;;;;15.00;13.43;;;;;;;0.80;100.00;94446.19;5030120;28;20443;-74
2022/04/01 05:57:03;;;;;;;15.57;12.93;;;;;;;0.75;100.00;94443.75;5029608;28;21035;-74
2022/04/01 05:59:32;;;;;;;12.50;11.23;;;;;;;0.54;100.00;94415.84;5029562;28;20818;-74
2022/04/01 06:02:30;;;;;;;18.50;12.63;;;;;;;0.77;100.00;94442.38;5029722;28;20451;-75
2022/04/01 06:05:38;;;;;;;15.07;11.23;;;;;;;0.77;100.00;94444.22;5033115;28;20482;-74
2022/04/01 06:08:20;;;;;;;12.67;10.33;;;;;;;0.84;100.00;94454.91;5033114;28;20439;-75
2022/04/01 06:11:01;;;;;;;13.33;11.50;;;;;;;0.56;100.00;94431.88;5033086;28;20915;-74
2022/04/01 06:14:09;;;;;;;13.87;11.63;;;;;;;0.72;100.00;94454.78;5033567;28;20445;-74
2022/04/01 06:17:04;;;;;;;15.00;12.20;;;;;;;0.75;100.00;94460.13;5034146;28;20465;-75
2022/04/01 06:19:46;;;;;;;14.10;12.40;;;;;;;0.67;100.00;94458.31;5032883;28;20442;-75
2022/04/01 06:22:20;;;;;;;12.27;10.50;;;;;;;0.72;100.00;94467.78;5016581;28;20485;-74
2022/04/01 06:24:58;;;;;;;15.37;13.70;;;;;;;0.71;100.00;94467.03;5033123;28;20451;-76
2022/04/01 06:27:38;;;;;;;15.47;11.73;;;;;;;0.80;100.00;94464.38;5049713;28;20455;-75
2022/04/01 06:30:06;;;;;;;13.57;11.27;;;;;;;0.68;100.00;94467.66;5032713;28;20446;-75
2022/04/01 06:32:55;;;;;;;13.47;10.50;;;;;;;0.70;100.00;94473.31;5032711;28;20434;-75
2022/04/01 06:35:44;;;;;;;12.90;10.47;;;;;;;0.57;100.00;94464.59;5004341;28;20526;-75
2022/04/01 06:38:35;;;;;;;13.23;11.30;;;;;;;0.44;100.00;94447.34;5065936;28;20542;-75
2022/04/01 06:41:07;;;;;;;12.30;11.00;;;;;;;0.61;100.00;94469.94;5041782;28;20443;-75
2022/04/01 06:43:48;;;;;;;14.40;11.70;;;;;;;0.70;100.00;94475.13;5016243;28;20523;-75
2022/04/01 06:46:35;;;;;;;15.20;13.57;;;;;;;0.41;100.00;94440.16;5032574;28;20460;-75
2022/04/01 06:49:15;;;;;;;16.87;12.70;;;;;;;0.61;100.00;94485.53;5032621;28;20448;-74
2022/04/01 06:51:42;;;;;;;13.97;11.57;;;;;;;0.69;100.00;94484.78;5032572;28;20843;-75
2022/04/01 06:54:21;;;;;;;14.13;11.57;;;;;;;0.49;100.00;94452.38;5033574;28;20429;-75
2022/04/01 06:57:14;;;;;;;13.13;11.43;;;;;;;0.71;100.00;94481.88;5032474;28;20463;-76
2022/04/01 07:00:11;;;;;;;13.40;11.97;;;;;;;0.88;100.00;94487.78;5026807;28;20451;-75
2022/04/01 07:02:41;;;;;;;15.57;12.97;;;;;;;0.71;100.00;94485.22;5032043;28;20443;-75
2022/04/01 07:05:11;;;;;;;16.00;14.10;;;;;;;0.71;100.00;94489.66;5031844;28;20459;-75
2022/04/01 07:07:43;;;;;;;15.90;11.70;;;;;;;0.72;100.00;94489.34;5032485;28;20525;-75
2022/04/01 07:10:14;;;;;;;14.87;12.07;;;;;;;0.67;100.00;94466.13;5031781;28;20851;-75
2022/04/01 07:12:40;;;;;;;15.80;13.53;;;;;;;0.42;100.00;94435.72;5031794;28;20511;-75
2022/04/01 07:15:08;;;;;;;17.80;13.37;;;;;;;0.72;100.00;94471.16;5011751;28;20890;-75
2022/04/01 07:17:38;;;;;;;14.80;12.90;;;;;;;0.77;100.00;94473.56;5033608;28;20455;-75
2022/04/01 07:20:10;;;;;;;17.17;14.63;;;;;;;0.76;100.00;94495.44;5033103;28;20430;-75
2022/04/01 07:22:47;;;;;;;18.10;14.13;;;;;;;0.80;100.00;94487.78;5031944;28;20818;-75
2022/04/01 07:25:14;;;;;;;19.20;16.07;;;;;;;0.89;100.00;94506.75;5031722;28;20502;-75
2022/04/01 07:27:40;;;;;;;17.47;13.40;;;;;;;0.80;100.00;94490.41;5031569;28;20457;-75
2022/04/01 07:30:08;;;;;;;20.00;15.53;;;;;;;0.93;100.00;94501.69;5031711;28;20481;-75
2022/04/01 07:32:36;;;;;;;18.60;14.13;;;;;;;0.83;100.00;94484.59;5027044;28;20534;-75
2022/04/01 07:35:08;;;;;;;16.20;13.67;;;;;;;0.99;100.00;94513.47;5011706;28;20431;-75
2022/04/01 07:37:35;;;;;;;20.50;15.63;;;;;;;1.03;100.00;94503.97;5030897;28;20444;-75
2022/04/01 07:40:19;;;;;;;21.73;16.67;;;;;;;1.07;100.00;94515.28;5031548;28;20439;-75
2022/04/01 07:42:45;;;;;;;20.67;16.07;;;;;;;1.07;100.00;94489.25;5031407;28;20443;-75
2022/04/01 07:45:12;;;;;;;16.37;14.60;;;;;;;1.25;100.00;94503.00;5031133;28;20482;-75
2022/04/01 07:47:42;;;;;;;20.13;14.40;;;;;;;1.35;100.00;94518.28;5031284;28;20522;-75
2022/04/01 07:50:08;;;;;;;22.30;16.80;;;;;;;1.34;100.00;94520.13;5032482;28;20952;-76
2022/04/01 07:52:40;;;;;;;24.60;18.70;;;;;;;1.26;100.00;94509.72;5031272;28;20513;-75
2022/04/01 07:55:11;;;;;;;25.20;17.83;;;;;;;1.36;100.00;94523.16;5031120;28;20447;-75
2022/04/01 07:57:38;;;;;;;20.33;16.97;;;;;;;1.47;100.00;94521.75;5031143;28;20942;-75
2022/04/01 08:00:11;;;;;;;18.93;14.77;;;;;;;1.38;100.00;94512.44;5032400;28;20938;-75
2022/04/01 08:02:40;;;;;;;17.77;13.60;;;;;;;1.37;100.00;94518.72;5031128;28;20447;-75
2022/04/01 08:05:08;;;;;;;17.10;14.50;;;;;;;1.36;100.00;94494.53;5030650;28;20822;-75
2022/04/01 08:07:36;;;;;;;15.73;13.20;;;;;;;1.50;100.00;94527.41;5030963;28;20525;-75
2022/04/01 08:10:04;;;;;;;19.70;15.77;;;;;;;1.60;100.00;94527.03;5030646;28;21029;-75
2022/04/01 08:12:39;;;;;;;19.87;15.20;;;;;;;1.52;100.00;94501.81;5030716;28;20952;-75
2022/04/01 08:15:06;;;;;;;15.93;14.17;;;;;;;1.56;100.00;94537.31;5030698;28;20454;-76
2022/04/01 08:17:33;;;;;;;19.07;13.97;;;;;;;1.53;100.00;94530.13;5032115;28;20595;-76
2022/04/01 08:19:59;;;;;;;16.37;14.67;;;;;;;1.28;100.00;94504.97;5055855;28;20448;-75
2022/04/01 08:22:26;;;;;;;15.43;12.80;;;;;;;1.46;100.00;94511.63;5045510;28;20517;-76
2022/04/01 08:24:53;;;;;;;16.47;13.43;;;;;;;1.63;100.00;94553.25;5023321;28;20556;-75
2022/04/01 08:27:19;;;;;;;14.50;12.50;;;;;;;1.55;100.00;94540.25;5044996;28;20456;-75
2022/04/01 08:29:46;;;;;;;14.80;12.40;;;;;;;1.72;100.00;94551.34;5030485;28;20523;-75
2022/04/01 08:32:12;;;;;;;17.27;12.73;;;;;;;1.69;100.00;94541.56;5014247;28;20489;-75
2022/04/01 08:34:39;;;;;;;13.77;12.30;;;;;;;1.65;100.00;94526.88;5021690;28;20523;-75
2022/04/01 08:37:07;;;;;;;16.40;12.67;;;;;;;1.73;100.00;94526.81;5059149;28;20503;-75
2022/04/01 08:39:34;;;;;;;14.80;12.93;;;;;;;1.99;100.00;94559.78;5021392;28;20479;-75
2022/04/01 08:42:03;;;;;;;14.50;12.40;;;;;;;1.74;100.00;94541.41;5026194;28;20815;-75
2022/04/01 08:44:30;;;;;;;13.73;11.00;;;;;;;1.86;100.00;94560.78;5030216;28;20546;-74
2022/04/01 08:46:57;;;;;;;12.90;11.57;;;;;;;1.77;100.00;94563.44;5013656;28;20465;-74
2022/04/01 08:49:25;;;;;;;14.40;12.27;;;;;;;1.67;100.00;94548.16;5030196;28;20522;-74
2022/04/01 08:51:53;;;;;;;18.17;13.00;;;;;;;1.67;100.00;94559.34;5030253;28;20426;-76
2022/04/01 08:54:20;;;;;;;14.60;12.77;;;;;;;1.75;100.00;94568.97;5030213;28;20431;-74
2022/04/01 08:56:46;;;;;;;16.70;13.37;;;;;;;1.72;100.00;94555.78;5029882;28;20470;-74
2022/04/01 08:59:13;;;;;;;13.47;10.97;;;;;;;1.58;100.00;94531.81;5030285;28;20447;-74
2022/04/01 09:01:44;;;;;;;14.90;12.63;;;;;;;1.81;100.00;94576.59;5030374;28;20533;-74
2022/04/01 09:04:16;;;;;;;16.60;12.70;;;;;;;1.63;100.00;94574.06;5063474;28;20464;-74
2022/04/01 09:06:43;;;;;;;14.43;12.40;;;;;;;1.61;100.00;94565.03;5029862;28;20486;-74
2022/04/01 09:09:27;;;;;;;17.17;13.50;;;;;;;1.94;100.00;94583.44;5030134;28;20462;-74
2022/04/01 09:12:09;;;;;;;15.10;13.10;;;;;;;1.69;100.00;94567.59;5014404;28;20960;-75
2022/04/01 09:14:36;;;;;;;16.83;13.50;;;;;;;1.84;100.00;94553.28;5026442;28;20529;-74
2022/04/01 09:17:05;;;;;;;17.27;12.93;;;;;;;2.15;100.00;94584.25;5040939;28;20436;-74
2022/04/01 09:19:34;;;;;;;16.33;12.97;;;;;;;2.08;100.00;94592.56;5022175;28;20470;-74
2022/04/01 09:22:34;;;;;;;14.80;12.73;;;;;;;2.12;100.00;94584.88;5052104;28;20461;-74
2022/04/01 09:25:05;;;;;;;17.57;13.87;;;;;;;2.00;100.00;94580.34;5016897;28;20466;-74
2022/04/01 09:27:46;;;;;;;17.50;14.27;;;;;;;2.06;100.00;94606.97;5015089;28;20467;-74
2022/04/01 09:30:18;;;;;;;18.50;14.97;;;;;;;2.20;100.00;94589.28;5021878;28;20434;-75
2022/04/01 09:32:47;;;;;;;17.70;13.53;;;;;;;2.17;100.00;94599.56;5063349;28;20519;-75
2022/04/01 09:35:15;;;;;;;16.87;14.33;;;;;;;2.17;100.00;94592.53;5017739;28;20455;-75
2022/04/01 09:37:44;;;;;;;14.50;12.90;;;;;;;2.39;100.00;94599.28;5010683;28;20530;-75
2022/04/01 09:40:14;;;;;;;15.03;13.43;;;;;;;2.42;100.00;94603.88;5027681;28;20433;-75
2022/04/01 09:42:55;;;;;;;15.53;13.90;;;;;;;2.47;100.00;94605.53;5025597;28;20444;-75
2022/04/01 09:45:27;;;;;;;17.87;14.10;;;;;;;2.07;100.00;94549.34;5017131;28;20497;-75
2022/04/01 09:48:01;;;;;;;16.50;13.83;;;;;;;2.34;100.00;94605.44;5033436;28;20542;-75
2022/04/01 09:50:30;;;;;;;20.67;16.03;;;;;;;2.13;100.00;94596.81;5061707;28;20444;-76
2022/04/01 09:53:07;;;;;;;21.60;17.40;;;;;;;1.67;100.00;94569.00;5030140;28;20428;-75
2022/04/01 09:55:38;;;;;;;17.83;15.93;;;;;;;1.82;100.00;94597.13;5046459;28;20444;-76
2022/04/01 09:58:07;;;;;;;22.27;18.57;;;;;;;1.92;100.00;94601.22;5030427;28;20424;-74
2022/04/01 10:00:36;;;;;;;19.00;15.80;;;;;;;2.02;100.00;94604.25;5033125;28;20855;-74
2022/04/01 10:03:05;;;;;;;21.47;16.97;;;;;;;2.05;100.00;94611.44;5066246;28;20425;-75
2022/04/01 10:05:31;;;;;;;24.30;18.23;;;;;;;1.75;100.00;94563.75;5032893;28;21060;-75
2022/04/01 10:08:02;;;;;;;23.63;18.50;;;;;;;1.81;100.00;94571.38;5016501;28;20538;-75
2022/04/01 10:10:30;;;;;;;22.23;16.77;;;;;;;1.85;100.00;94578.25;5032790;28;20481;-75
2022/04/01 10:13:08;;;;;;;20.60;17.63;;;;;;;1.82;100.00;94563.25;5032919;28;20447;-75
2022/04/01 10:15:36;;;;;;;19.20;16.20;;;;;;;1.95;100.00;94566.72;5016453;28;20464;-74
2022/04/01 10:18:03;;;;;;;20.07;15.67;;;;;;;2.04;100.00;94602.09;5032854;28;20533;-74
2022/04/01 10:20:36;;;;;;;23.73;18.97;;;;;;;2.22;100.00;94604.59;5032767;28;20481;-74
2022/04/01 10:23:08;;;;;;;20.33;16.30;;;;;;;2.20;100.00;94606.75;5032794;28;20430;-74
2022/04/01 10:26:04;;;;;;;21.90;16.07;;;;;;;2.28;100.00;94606.72;5033899;28;20486;-75
2022/04/01 10:28:31;;;;;;;21.07;16.90;;;;;;;2.26;100.00;94606.25;5014960;28;20439;-74
2022/04/01 10:31:00;;;;;;;20.10;15.67;;;;;;;2.16;100.00;94598.06;5032698;28;20449;-74
2022/04/01 10:33:35;;;;;;;19.50;16.40;;;;;;;2.08;100.00;94589.19;5033853;28;20427;-74
2022/04/01 10:36:26;;;;;;;19.73;16.60;;;;;;;2.26;100.00;94619.28;5007596;28;20452;-74
2022/04/01 10:39:04;;;;;;;19.43;17.43;;;;;;;2.07;100.00;94617.09;5033795;28;20517;-74
2022/04/01 10:41:30;;;;;;;20.43;17.87;;;;;;;2.21;100.00;94623.94;5032481;28;20451;-75
2022/04/01 10:43:58;;;;;;;20.07;18.03;;;;;;;2.13;100.00;94607.25;5013838;28;20562;-75
2022/04/01 10:46:24;;;;;;;22.20;18.90;;;;;;;2.15;100.00;94612.16;5024149;28;20495;-75
2022/04/01 10:52:10;;;;;;;21.30;15.90;;;;;;;2.34;100.00;94638.59;5033737;28;20438;-75
2022/04/01 10:54:42;;;;;;;20.70;17.67;;;;;;;2.07;100.00;94632.72;5032469;28;20481;-75
2022/04/01 10:57:12;;;;;;;21.47;17.83;;;;;;;1.84;100.00;94612.44;4999797;28;20472;-76
2022/04/01 10:59:47;;;;;;;20.37;17.40;;;;;;;1.78;100.00;94610.00;5029045;28;20448;-75
2022/04/01 11:02:18;;;;;;;23.27;19.63;;;;;;;1.81;100.00;94611.22;5022783;28;20462;-75
2022/04/01 11:04:48;;;;;;;19.20;17.23;;;;;;;1.84;100.00;94612.44;5033403;28;20498;-75
2022/04/01 11:07:24;;;;;;;22.10;17.70;;;;;;;1.86;100.00;94637.09;5031996;28;20468;-75
2022/04/01 11:09:53;;;;;;;18.80;16.80;;;;;;;1.91;100.00;94634.34;5033057;28;20427;-75
2022/04/01 11:12:32;;;;;;;27.40;18.83;;;;;;;1.91;100.00;94644.75;5033160;28;20460;-75
2022/04/01 11:15:17;;;;;;;19.37;16.60;;;;;;;1.94;100.00;94648.56;5033098;28;20511;-75
2022/04/01 11:17:43;;;;;;;22.80;18.50;;;;;;;2.00;100.00;94649.91;5031944;28;20447;-75
2022/04/01 11:20:13;;;;;;;20.90;17.07;;;;;;;2.03;100.00;94649.31;5022782;28;20479;-75
2022/04/01 11:23:04;;;;;;;20.07;18.03;;;;;;;1.99;100.00;94651.00;4998418;28;20487;-75
2022/04/01 11:25:31;;;;;;;21.97;19.23;;;;;;;2.01;100.00;94647.03;5029178;28;21083;-76
2022/04/01 11:28:11;;;;;;;21.60;18.17;;;;;;;1.82;100.00;94625.78;5031940;28;20427;-76
2022/04/01 11:30:38;;;;;;;17.60;15.63;;;;;;;1.95;100.00;94657.91;5032442;28;20472;-76
2022/04/01 11:33:10;;;;;;;21.03;18.50;;;;;;;1.93;100.00;94647.81;5032364;28;20427;-76
2022/04/01 11:35:45;;;;;;;21.07;17.80;;;;;;;1.58;100.00;94613.28;5020071;28;20494;-75
2022/04/01 11:38:15;;;;;;;21.73;19.43;;;;;;;1.92;100.00;94651.50;5031995;28;20476;-75
2022/04/01 11:40:45;;;;;;;21.80;19.50;;;;;;;2.03;100.00;94655.28;5026767;28;20429;-75
2022/04/01 11:43:14;;;;;;;21.10;18.90;;;;;;;1.88;100.00;94650.59;5013254;28;20447;-75
2022/04/01 11:45:45;;;;;;;21.13;18.13;;;;;;;1.98;100.00;94649.47;5026874;28;20496;-75
2022/04/01 11:48:33;;;;;;;24.20;21.10;;;;;;;2.15;100.00;94646.81;5011928;28;20506;-75
2022/04/01 11:51:05;;;;;;;22.00;19.47;;;;;;;2.38;100.00;94653.28;5031985;28;20479;-75